Aviation Digital Data Service (ADDS)

Output produced by METARs form (1106 UTC 18 October 2017)
found at http://www.aviationweather.gov/adds/metars/
 
OEAB 181000Z 33006KT 9999 FEW020 28/M06 Q1024 NOSIG
TAF OEAB 181100Z 1812/1918 25013KT 9999 FEW020 
     TEMPO 1812/1819 SCT020 
     BECMG 1818/1820 VRB03KT
       
OEAH 181000Z 30008KT CAVOK 37/07 Q1010 NOSIG
TAF OEAH 172300Z 1800/1906 25006KT CAVOK 
     BECMG 1806/1808 02012KT 7000 SKC 
     TEMPO 1806/1816 4000 DU
       
OEBA 181000Z 11007KT CAVOK 28/00 Q1020 NOSIG
TAF OEBA 181100Z 1812/1918 09013KT CAVOK 
     BECMG 1818/1820 14008KT
       
OESK 181000Z 08013KT CAVOK 29/M01 Q1017 NOSIG
TAF OESK 172300Z 1800/1906 03010KT 7000 NSC 
     BECMG 1806/1808 07015KT 
     TEMPO 1806/1816 4000 BLDU FEW040 SCT100
       
OERR 181000Z 06007KT CAVOK 29/11 Q1017 NOSIG
TAF OERR 172300Z 1800/1906 34010KT 8000 FEW040 
     BECMG 1806/1808 03008G18KT 
     TEMPO 1806/1816 4000 DU BLDU
       
OEBH 181000Z 06008KT CAVOK 32/M06 Q1017 NOSIG
TAF OEBH 181100Z 1812/1918 09013KT CAVOK 
     BECMG 1818/1820 14008KT
       
OEGS 181000Z 09005KT CAVOK 35/10 Q1013
TAF OEGS 172300Z 1800/1906 06012KT 7000 SKC 
     TEMPO 1800/1810 4000 DU 
     BECMG 1810/1812 25013KT
       
OEGT 181000Z 09004KT CAVOK 26/00 Q1017 NOSIG
TAF OEGT 172300Z 1800/1906 33010KT 7000 FEW040 SCT100 
     BECMG 1812/1814 02015KT
       
OEHL 181000Z 06008KT 8000 SKC 29/04 Q1018 NOSIG
TAF OEHL 172300Z 1800/1906 03010KT 7000 FEW030 
     BECMG 1806/1808 09015KT 
     TEMPO 1806/1812 4000 BLDU SCT040 SCT100 
     BECMG 1814/1816 19012KT
       
OEGN 181000Z 22009KT 180V260 9999 FEW030 36/25 Q1008 NOSIG
TAF OEGN 181100Z 1812/1918 28012KT 7000 FEW030 SCT100 
     BECMG 1818/1820 VRB03KT
       
OEDR 181000Z 06007KT CAVOK 36/20 Q1008 NOSIG
TAF OEDR 180900Z 1812/1918 01014KT CAVOK 
     BECMG 1818/1820 32010KT
       
OEJN 181100Z 32016KT CAVOK 34/19 Q1007 NOSIG
TAF OEJN 181100Z 1812/1918 33010G20KT CAVOK 
     BECMG 1819/1820 02010KT
       
OEDF 181100Z 01010KT CAVOK 36/15 Q1009 NOSIG
TAF OEDF 180900Z 1812/1918 01014KT CAVOK 
     BECMG 1818/1820 32010KT
       
OEKM 181000Z 33003KT CAVOK 28/M09 Q1023 NOSIG
TAF OEKM 181100Z 1812/1918 25013KT 9999 FEW020 
     TEMPO 1812/1819 SCT020 
     BECMG 1818/1820 VRB03KT
       
OERK 181100Z 15007KT CAVOK 37/M05 Q1014 NOSIG
TAF OERK 181100Z 1812/1918 14012KT CAVOK 
     BECMG 1818/1820 08008KT
       
TAF OEKK 180400Z 1806/1820 09008G18KT 7000 NSC 
     TEMPO 1806/1814 4000 DU BLDU
       
OENG 181000Z 13006KT CAVOK 32/M02 Q1016 NOSIG
TAF OENG 181100Z 1812/1918 06012KT CAVOK 
     BECMG 1818/1820 VRB03KT
       
OEMA 181100Z 30005KT CAVOK 34/M06 Q1014 NOSIG
TAF OEMA 181100Z 1812/1918 24014KT 7000 SKC 
     BECMG 1816/1818 28008KT
       
OEPA 180900Z 04010KT CAVOK 33/13 Q1015 NOSIG
TAF OEPA 172300Z 1800/1906 06008G18KT 7000 FEW040 
     TEMPO 1806/1816 4000 DU BLDU SCT040 SCT100
       
OERF 181000Z 05012KT CAVOK 30/M03 Q1015
TAF OERF 172300Z 1800/1906 05008G18KT 7000 FEW040 SCT100 
     TEMPO 1806/1816 4000 DU BLDU SCT040
       
TAF OERY 172300Z 1800/1906 18006KT CAVOK 
     BECMG 1808/1810 16013KT
       
OESH 181000Z 07005KT CAVOK 34/06 Q1012 NOSIG
TAF OESH 181100Z 1812/1918 12012KT CAVOK 
     BECMG 1819/1820 08008KT
       
OETB 181000Z 12005KT CAVOK 28/M01 Q1016 NOSIG
TAF OETB 180400Z 1806/1815 VRB03KT CAVOK 
     BECMG 1807/1809 09008G18KT 7000 SKC
       
OETF 181000Z 11008G18KT CAVOK 31/M05 Q1019 NOSIG
TAF OETF 181100Z 1812/1918 24010G20KT 9999 FEW030 
     BECMG 1820/1822 VRB03KT
       
OETR 181000Z 03006KT CAVOK 27/05 Q1019
TAF OETR 172300Z 1800/1906 05006G16KT 7000 FEW040 
     TEMPO 1806/1812 4000 DU BLDU 
     BECMG 1812/1814 30012KT
       
OEWD 181000Z 12006KT CAVOK 35/04 Q1012 NOSIG
TAF OEWD 181100Z 1812/1918 10012KT 7000 SKC 
     TEMPO 1812/1818 4000 DU 
     BECMG 1818/1820 VRB03KT
       
OEWJ 181000Z 24010KT CAVOK 30/23 Q1010 NOSIG
TAF OEWJ 181100Z 1812/1918 06010G20KT 7000 SKC 
     TEMPO 1812/1818 4000 DU BLDU
       
OEYN 181000Z 21008KT CAVOK 33/15 Q1009 NOSIG
TAF OEYN 181100Z 1812/1918 27012KT CAVOK 
     BECMG 1820/1822 VRB03KT